sensor_id;sensor_type;location;lat;lon;timestamp;temperature;humidity
23532;DHT22;11943;52.270;20.978;2022-12-29T00:01:32;6.40;99.90
23532;DHT22;11943;52.270;20.978;2022-12-29T00:03:58;6.40;99.90
23532;DHT22;11943;52.270;20.978;2022-12-29T00:06:23;6.40;99.90
23532;DHT22;11943;52.270;20.978;2022-12-29T00:08:49;6.40;99.90
23532;DHT22;11943;52.270;20.978;2022-12-29T00:11:15;6.40;99.90
23532;DHT22;11943;52.270;20.978;2022-12-29T00:13:41;6.40;99.90
23532;DHT22;11943;52.270;20.978;2022-12-29T00:16:25;6.40;99.90
23532;DHT22;11943;52.270;20.978;2022-12-29T00:18:51;6.40;99.90
23532;DHT22;11943;52.270;20.978;2022-12-29T00:21:17;6.50;99.90
23532;DHT22;11943;52.270;20.978;2022-12-29T00:24:02;6.40;99.90
23532;DHT22;11943;52.270;20.978;2022-12-29T00:26:53;6.50;99.90
23532;DHT22;11943;52.270;20.978;2022-12-29T00:29:38;6.50;99.90
23532;DHT22;11943;52.270;20.978;2022-12-29T00:32:22;6.50;99.90
23532;DHT22;11943;52.270;20.978;2022-12-29T00:35:08;6.50;99.90
23532;DHT22;11943;52.270;20.978;2022-12-29T00:37:37;6.50;99.90
23532;DHT22;11943;52.270;20.978;2022-12-29T00:40:23;6.50;99.90
23532;DHT22;11943;52.270;20.978;2022-12-29T00:43:07;6.50;99.90
23532;DHT22;11943;52.270;20.978;2022-12-29T00:45:51;6.40;99.90
23532;DHT22;11943;52.270;20.978;2022-12-29T00:48:17;6.40;99.90
23532;DHT22;11943;52.270;20.978;2022-12-29T00:51:05;6.40;99.90
23532;DHT22;11943;52.270;20.978;2022-12-29T00:53:31;6.40;99.90
23532;DHT22;11943;52.270;20.978;2022-12-29T00:55:57;6.40;99.90
23532;DHT22;11943;52.270;20.978;2022-12-29T00:58:23;6.50;99.90
23532;DHT22;11943;52.270;20.978;2022-12-29T01:00:48;6.50;99.90
23532;DHT22;11943;52.270;20.978;2022-12-29T01:03:14;6.50;99.90
23532;DHT22;11943;52.270;20.978;2022-12-29T01:05:39;6.50;99.90
23532;DHT22;11943;52.270;20.978;2022-12-29T01:08:05;6.50;99.90
23532;DHT22;11943;52.270;20.978;2022-12-29T01:10:30;6.50;99.90
23532;DHT22;11943;52.270;20.978;2022-12-29T01:12:56;6.50;99.90
23532;DHT22;11943;52.270;20.978;2022-12-29T01:15:21;6.50;99.90
23532;DHT22;11943;52.270;20.978;2022-12-29T01:17:47;6.50;99.90
23532;DHT22;11943;52.270;20.978;2022-12-29T01:20:12;6.50;99.90
23532;DHT22;11943;52.270;20.978;2022-12-29T01:22:38;6.50;99.90
23532;DHT22;11943;52.270;20.978;2022-12-29T01:25:04;6.50;99.90
23532;DHT22;11943;52.270;20.978;2022-12-29T01:27:30;6.50;99.90
23532;DHT22;11943;52.270;20.978;2022-12-29T01:29:55;6.50;99.90
23532;DHT22;11943;52.270;20.978;2022-12-29T01:32:21;6.50;99.90
23532;DHT22;11943;52.270;20.978;2022-12-29T01:34:46;6.50;99.90
23532;DHT22;11943;52.270;20.978;2022-12-29T01:37:12;6.50;99.90
23532;DHT22;11943;52.270;20.978;2022-12-29T01:39:37;6.50;99.90
23532;DHT22;11943;52.270;20.978;2022-12-29T01:42:03;6.50;99.90
23532;DHT22;11943;52.270;20.978;2022-12-29T01:47:15;6.50;99.90
23532;DHT22;11943;52.270;20.978;2022-12-29T01:49:43;6.50;99.90
23532;DHT22;11943;52.270;20.978;2022-12-29T01:52:08;6.50;99.90
23532;DHT22;11943;52.270;20.978;2022-12-29T01:54:36;6.50;99.90
23532;DHT22;11943;52.270;20.978;2022-12-29T01:57:03;6.40;99.90
23532;DHT22;11943;52.270;20.978;2022-12-29T01:59:34;6.40;99.90
23532;DHT22;11943;52.270;20.978;2022-12-29T02:02:01;6.40;99.90
23532;DHT22;11943;52.270;20.978;2022-12-29T02:04:27;6.30;99.90
23532;DHT22;11943;52.270;20.978;2022-12-29T02:07:05;6.30;99.90
23532;DHT22;11943;52.270;20.978;2022-12-29T02:09:32;6.30;99.90
23532;DHT22;11943;52.270;20.978;2022-12-29T02:11:58;6.30;99.90
23532;DHT22;11943;52.270;20.978;2022-12-29T02:14:24;6.30;99.90
23532;DHT22;11943;52.270;20.978;2022-12-29T02:17:06;6.20;99.90
23532;DHT22;11943;52.270;20.978;2022-12-29T02:25:09;6.10;99.90
23532;DHT22;11943;52.270;20.978;2022-12-29T02:46:05;5.70;99.90
23532;DHT22;11943;52.270;20.978;2022-12-29T02:53:26;5.70;99.90
23532;DHT22;11943;52.270;20.978;2022-12-29T02:56:12;5.70;99.90
23532;DHT22;11943;52.270;20.978;2022-12-29T02:58:38;5.60;99.90
23532;DHT22;11943;52.270;20.978;2022-12-29T03:01:07;5.60;99.90
23532;DHT22;11943;52.270;20.978;2022-12-29T03:03:44;5.60;99.90
23532;DHT22;11943;52.270;20.978;2022-12-29T03:11:08;5.50;99.90
23532;DHT22;11943;52.270;20.978;2022-12-29T03:14:00;5.40;99.90
23532;DHT22;11943;52.270;20.978;2022-12-29T03:16:54;5.40;99.90
23532;DHT22;11943;52.270;20.978;2022-12-29T03:21:48;5.30;99.90
23532;DHT22;11943;52.270;20.978;2022-12-29T03:24:34;5.30;99.90
23532;DHT22;11943;52.270;20.978;2022-12-29T03:27:02;5.30;99.90
23532;DHT22;11943;52.270;20.978;2022-12-29T03:29:30;5.20;99.90
23532;DHT22;11943;52.270;20.978;2022-12-29T03:31:57;5.20;99.90
23532;DHT22;11943;52.270;20.978;2022-12-29T03:34:23;5.20;99.90
23532;DHT22;11943;52.270;20.978;2022-12-29T03:36:53;5.10;99.90
23532;DHT22;11943;52.270;20.978;2022-12-29T03:39:20;5.10;99.90
23532;DHT22;11943;52.270;20.978;2022-12-29T03:41:46;5.00;99.90
23532;DHT22;11943;52.270;20.978;2022-12-29T03:44:15;5.00;99.90
23532;DHT22;11943;52.270;20.978;2022-12-29T03:46:40;5.00;99.90
23532;DHT22;11943;52.270;20.978;2022-12-29T03:49:06;5.00;99.90
23532;DHT22;11943;52.270;20.978;2022-12-29T03:51:31;5.00;99.90
23532;DHT22;11943;52.270;20.978;2022-12-29T03:53:57;5.00;99.90
23532;DHT22;11943;52.270;20.978;2022-12-29T03:56:22;5.00;99.90
23532;DHT22;11943;52.270;20.978;2022-12-29T03:58:48;5.00;99.90
23532;DHT22;11943;52.270;20.978;2022-12-29T04:01:13;4.90;99.90
23532;DHT22;11943;52.270;20.978;2022-12-29T04:03:39;5.00;99.90
23532;DHT22;11943;52.270;20.978;2022-12-29T04:06:04;5.00;99.90
23532;DHT22;11943;52.270;20.978;2022-12-29T04:08:30;5.00;99.90
23532;DHT22;11943;52.270;20.978;2022-12-29T04:10:55;5.00;99.90
23532;DHT22;11943;52.270;20.978;2022-12-29T04:13:21;4.90;99.90
23532;DHT22;11943;52.270;20.978;2022-12-29T04:15:46;4.90;99.90
23532;DHT22;11943;52.270;20.978;2022-12-29T04:18:12;4.90;99.90
23532;DHT22;11943;52.270;20.978;2022-12-29T04:20:38;4.80;99.90
23532;DHT22;11943;52.270;20.978;2022-12-29T04:23:22;4.90;99.90
23532;DHT22;11943;52.270;20.978;2022-12-29T04:25:48;4.80;99.90
23532;DHT22;11943;52.270;20.978;2022-12-29T04:28:14;4.90;99.90
23532;DHT22;11943;52.270;20.978;2022-12-29T04:30:39;4.90;99.90
23532;DHT22;11943;52.270;20.978;2022-12-29T04:33:05;4.90;99.90
23532;DHT22;11943;52.270;20.978;2022-12-29T04:35:30;4.80;99.90
23532;DHT22;11943;52.270;20.978;2022-12-29T04:37:56;4.90;99.90
23532;DHT22;11943;52.270;20.978;2022-12-29T04:40:21;4.80;99.90
23532;DHT22;11943;52.270;20.978;2022-12-29T04:42:48;4.80;99.90
23532;DHT22;11943;52.270;20.978;2022-12-29T04:45:14;5.00;99.90
23532;DHT22;11943;52.270;20.978;2022-12-29T04:47:39;4.80;99.90
23532;DHT22;11943;52.270;20.978;2022-12-29T04:50:05;4.80;99.90
23532;DHT22;11943;52.270;20.978;2022-12-29T04:52:30;4.80;99.90
23532;DHT22;11943;52.270;20.978;2022-12-29T04:54:56;4.80;99.90
23532;DHT22;11943;52.270;20.978;2022-12-29T04:57:21;4.80;99.90
23532;DHT22;11943;52.270;20.978;2022-12-29T04:59:47;4.80;99.90
23532;DHT22;11943;52.270;20.978;2022-12-29T05:02:12;4.80;99.90
23532;DHT22;11943;52.270;20.978;2022-12-29T05:04:38;4.80;99.90
23532;DHT22;11943;52.270;20.978;2022-12-29T05:07:03;4.80;99.90
23532;DHT22;11943;52.270;20.978;2022-12-29T05:09:29;4.70;99.90
23532;DHT22;11943;52.270;20.978;2022-12-29T05:11:55;4.80;99.90
23532;DHT22;11943;52.270;20.978;2022-12-29T05:14:20;4.80;99.90
23532;DHT22;11943;52.270;20.978;2022-12-29T05:16:46;4.80;99.90
23532;DHT22;11943;52.270;20.978;2022-12-29T05:19:12;4.80;99.90
23532;DHT22;11943;52.270;20.978;2022-12-29T05:21:37;4.80;99.90
23532;DHT22;11943;52.270;20.978;2022-12-29T05:24:03;4.90;99.90
23532;DHT22;11943;52.270;20.978;2022-12-29T05:26:28;4.90;99.90
23532;DHT22;11943;52.270;20.978;2022-12-29T05:28:54;4.90;99.90
23532;DHT22;11943;52.270;20.978;2022-12-29T05:31:19;4.90;99.90
23532;DHT22;11943;52.270;20.978;2022-12-29T05:33:45;4.90;99.90
23532;DHT22;11943;52.270;20.978;2022-12-29T05:36:10;4.90;99.90
23532;DHT22;11943;52.270;20.978;2022-12-29T05:38:36;4.90;99.90
23532;DHT22;11943;52.270;20.978;2022-12-29T05:41:02;4.90;99.90
23532;DHT22;11943;52.270;20.978;2022-12-29T05:43:27;4.90;99.90
23532;DHT22;11943;52.270;20.978;2022-12-29T05:45:53;4.90;99.90
23532;DHT22;11943;52.270;20.978;2022-12-29T05:48:19;4.90;99.90
23532;DHT22;11943;52.270;20.978;2022-12-29T05:50:48;4.80;99.90
23532;DHT22;11943;52.270;20.978;2022-12-29T05:53:13;4.90;99.90
23532;DHT22;11943;52.270;20.978;2022-12-29T05:55:39;4.80;99.90
23532;DHT22;11943;52.270;20.978;2022-12-29T05:58:04;4.90;99.90
23532;DHT22;11943;52.270;20.978;2022-12-29T06:00:30;4.80;99.90
23532;DHT22;11943;52.270;20.978;2022-12-29T06:02:55;4.80;99.90
23532;DHT22;11943;52.270;20.978;2022-12-29T06:05:21;4.80;99.90
23532;DHT22;11943;52.270;20.978;2022-12-29T06:07:46;4.90;99.90
23532;DHT22;11943;52.270;20.978;2022-12-29T06:10:12;4.90;99.90
23532;DHT22;11943;52.270;20.978;2022-12-29T06:12:38;4.90;99.90
23532;DHT22;11943;52.270;20.978;2022-12-29T06:15:03;4.90;99.90
23532;DHT22;11943;52.270;20.978;2022-12-29T06:17:29;4.90;99.90
23532;DHT22;11943;52.270;20.978;2022-12-29T06:19:54;5.00;99.90
23532;DHT22;11943;52.270;20.978;2022-12-29T06:22:20;5.00;99.90
23532;DHT22;11943;52.270;20.978;2022-12-29T06:24:45;5.00;99.90
23532;DHT22;11943;52.270;20.978;2022-12-29T06:27:11;5.00;99.90
23532;DHT22;11943;52.270;20.978;2022-12-29T06:29:37;5.00;99.90
23532;DHT22;11943;52.270;20.978;2022-12-29T06:32:05;5.10;99.90
23532;DHT22;11943;52.270;20.978;2022-12-29T06:34:30;5.00;99.90
23532;DHT22;11943;52.270;20.978;2022-12-29T06:36:56;5.10;99.90
23532;DHT22;11943;52.270;20.978;2022-12-29T06:39:21;5.00;99.90
23532;DHT22;11943;52.270;20.978;2022-12-29T06:41:47;5.10;99.90
23532;DHT22;11943;52.270;20.978;2022-12-29T06:44:12;5.10;99.90
23532;DHT22;11943;52.270;20.978;2022-12-29T06:46:38;5.10;99.90
23532;DHT22;11943;52.270;20.978;2022-12-29T06:49:03;5.10;99.90
23532;DHT22;11943;52.270;20.978;2022-12-29T06:51:29;5.10;99.90
23532;DHT22;11943;52.270;20.978;2022-12-29T06:53:54;5.00;99.90
23532;DHT22;11943;52.270;20.978;2022-12-29T06:56:20;5.00;99.90
23532;DHT22;11943;52.270;20.978;2022-12-29T06:58:45;5.10;99.90
23532;DHT22;11943;52.270;20.978;2022-12-29T07:01:11;5.10;99.90
23532;DHT22;11943;52.270;20.978;2022-12-29T07:03:36;5.10;99.90
23532;DHT22;11943;52.270;20.978;2022-12-29T07:06:02;5.30;99.90
23532;DHT22;11943;52.270;20.978;2022-12-29T07:08:27;5.20;99.90
23532;DHT22;11943;52.270;20.978;2022-12-29T07:10:53;5.20;99.90
23532;DHT22;11943;52.270;20.978;2022-12-29T07:13:18;5.20;99.90
23532;DHT22;11943;52.270;20.978;2022-12-29T07:15:44;5.20;99.90
23532;DHT22;11943;52.270;20.978;2022-12-29T07:18:09;5.30;99.90
23532;DHT22;11943;52.270;20.978;2022-12-29T07:20:35;5.40;99.90
23532;DHT22;11943;52.270;20.978;2022-12-29T07:23:01;5.40;99.90
23532;DHT22;11943;52.270;20.978;2022-12-29T07:25:27;5.40;99.90
23532;DHT22;11943;52.270;20.978;2022-12-29T07:27:54;5.40;99.90
23532;DHT22;11943;52.270;20.978;2022-12-29T07:30:19;5.40;99.90
23532;DHT22;11943;52.270;20.978;2022-12-29T07:32:45;5.40;99.90
23532;DHT22;11943;52.270;20.978;2022-12-29T07:35:10;5.40;99.90
23532;DHT22;11943;52.270;20.978;2022-12-29T07:37:36;5.40;99.90
23532;DHT22;11943;52.270;20.978;2022-12-29T07:40:02;5.40;99.90
23532;DHT22;11943;52.270;20.978;2022-12-29T07:42:28;5.50;99.90
23532;DHT22;11943;52.270;20.978;2022-12-29T07:44:54;5.50;99.90
23532;DHT22;11943;52.270;20.978;2022-12-29T07:47:19;5.60;99.90
23532;DHT22;11943;52.270;20.978;2022-12-29T07:49:45;5.70;99.90
23532;DHT22;11943;52.270;20.978;2022-12-29T07:52:10;5.70;99.90
23532;DHT22;11943;52.270;20.978;2022-12-29T07:54:36;5.80;99.90
23532;DHT22;11943;52.270;20.978;2022-12-29T07:57:01;5.80;99.90
23532;DHT22;11943;52.270;20.978;2022-12-29T07:59:27;5.80;99.90
23532;DHT22;11943;52.270;20.978;2022-12-29T08:01:52;5.80;99.90
23532;DHT22;11943;52.270;20.978;2022-12-29T08:04:18;5.90;99.90
23532;DHT22;11943;52.270;20.978;2022-12-29T08:06:44;5.90;99.90
23532;DHT22;11943;52.270;20.978;2022-12-29T08:09:10;5.90;99.90
23532;DHT22;11943;52.270;20.978;2022-12-29T08:11:36;5.90;99.90
23532;DHT22;11943;52.270;20.978;2022-12-29T08:14:02;6.00;99.90
23532;DHT22;11943;52.270;20.978;2022-12-29T08:16:27;6.00;99.90
23532;DHT22;11943;52.270;20.978;2022-12-29T08:18:53;6.10;99.90
23532;DHT22;11943;52.270;20.978;2022-12-29T08:21:18;6.20;99.90
23532;DHT22;11943;52.270;20.978;2022-12-29T08:23:44;6.20;99.90
23532;DHT22;11943;52.270;20.978;2022-12-29T08:26:09;6.30;99.90
23532;DHT22;11943;52.270;20.978;2022-12-29T08:28:36;6.30;99.90
23532;DHT22;11943;52.270;20.978;2022-12-29T08:31:01;6.40;99.90
23532;DHT22;11943;52.270;20.978;2022-12-29T08:33:28;6.40;99.90
23532;DHT22;11943;52.270;20.978;2022-12-29T08:36:03;6.40;99.90
23532;DHT22;11943;52.270;20.978;2022-12-29T08:38:29;6.30;99.90
23532;DHT22;11943;52.270;20.978;2022-12-29T08:40:55;6.60;99.90
23532;DHT22;11943;52.270;20.978;2022-12-29T08:43:21;6.70;99.90
23532;DHT22;11943;52.270;20.978;2022-12-29T08:45:46;6.90;99.90
23532;DHT22;11943;52.270;20.978;2022-12-29T08:48:12;6.80;99.90
23532;DHT22;11943;52.270;20.978;2022-12-29T08:50:37;6.90;99.90
23532;DHT22;11943;52.270;20.978;2022-12-29T08:53:03;6.90;99.90
23532;DHT22;11943;52.270;20.978;2022-12-29T08:55:28;6.90;99.90
23532;DHT22;11943;52.270;20.978;2022-12-29T08:57:54;7.00;99.90
23532;DHT22;11943;52.270;20.978;2022-12-29T09:00:19;7.00;99.90
23532;DHT22;11943;52.270;20.978;2022-12-29T09:02:45;7.00;99.90
23532;DHT22;11943;52.270;20.978;2022-12-29T09:05:11;7.10;99.90
23532;DHT22;11943;52.270;20.978;2022-12-29T09:07:36;7.10;99.90
23532;DHT22;11943;52.270;20.978;2022-12-29T09:10:02;7.10;99.90
23532;DHT22;11943;52.270;20.978;2022-12-29T09:12:28;7.20;99.90
23532;DHT22;11943;52.270;20.978;2022-12-29T09:14:54;7.20;99.90
23532;DHT22;11943;52.270;20.978;2022-12-29T09:17:19;7.30;99.90
23532;DHT22;11943;52.270;20.978;2022-12-29T09:20:03;7.30;99.90
23532;DHT22;11943;52.270;20.978;2022-12-29T09:22:29;7.40;99.90
23532;DHT22;11943;52.270;20.978;2022-12-29T09:24:54;7.40;99.90
23532;DHT22;11943;52.270;20.978;2022-12-29T09:27:20;7.50;99.90
23532;DHT22;11943;52.270;20.978;2022-12-29T09:29:45;7.60;99.90
23532;DHT22;11943;52.270;20.978;2022-12-29T09:32:11;7.70;99.90
23532;DHT22;11943;52.270;20.978;2022-12-29T09:34:37;7.70;99.90
23532;DHT22;11943;52.270;20.978;2022-12-29T09:37:02;7.80;99.90
23532;DHT22;11943;52.270;20.978;2022-12-29T09:39:28;7.80;99.90
23532;DHT22;11943;52.270;20.978;2022-12-29T09:42:27;7.80;99.90
23532;DHT22;11943;52.270;20.978;2022-12-29T09:44:56;7.80;99.70
23532;DHT22;11943;52.270;20.978;2022-12-29T09:47:26;7.70;99.90
23532;DHT22;11943;52.270;20.978;2022-12-29T09:49:53;7.70;99.90
23532;DHT22;11943;52.270;20.978;2022-12-29T09:52:21;7.70;99.90
23532;DHT22;11943;52.270;20.978;2022-12-29T10:00:18;7.80;99.90
23532;DHT22;11943;52.270;20.978;2022-12-29T10:02:46;7.90;99.80
23532;DHT22;11943;52.270;20.978;2022-12-29T10:05:19;7.80;99.80
23532;DHT22;11943;52.270;20.978;2022-12-29T10:07:45;7.80;99.90
23532;DHT22;11943;52.270;20.978;2022-12-29T10:10:35;7.80;99.90
23532;DHT22;11943;52.270;20.978;2022-12-29T10:13:18;7.80;99.90
23532;DHT22;11943;52.270;20.978;2022-12-29T10:23:42;7.80;99.90
23532;DHT22;11943;52.270;20.978;2022-12-29T10:26:11;7.80;99.90
23532;DHT22;11943;52.270;20.978;2022-12-29T10:28:40;7.90;99.90
23532;DHT22;11943;52.270;20.978;2022-12-29T10:31:15;7.90;99.90
23532;DHT22;11943;52.270;20.978;2022-12-29T10:33:42;7.90;99.80
23532;DHT22;11943;52.270;20.978;2022-12-29T10:36:24;8.00;99.40
23532;DHT22;11943;52.270;20.978;2022-12-29T10:44:13;8.00;99.40
23532;DHT22;11943;52.270;20.978;2022-12-29T10:46:40;8.10;98.80
23532;DHT22;11943;52.270;20.978;2022-12-29T10:49:06;8.10;98.40
23532;DHT22;11943;52.270;20.978;2022-12-29T10:51:37;8.00;98.50
23532;DHT22;11943;52.270;20.978;2022-12-29T10:54:05;8.10;98.20
23532;DHT22;11943;52.270;20.978;2022-12-29T10:56:36;8.20;98.70
23532;DHT22;11943;52.270;20.978;2022-12-29T10:59:13;8.20;98.40
23532;DHT22;11943;52.270;20.978;2022-12-29T11:01:43;8.10;98.00
23532;DHT22;11943;52.270;20.978;2022-12-29T11:06:46;8.20;97.60
23532;DHT22;11943;52.270;20.978;2022-12-29T11:09:12;8.20;98.20
23532;DHT22;11943;52.270;20.978;2022-12-29T11:11:39;8.30;98.10
23532;DHT22;11943;52.270;20.978;2022-12-29T11:14:12;8.30;97.90
23532;DHT22;11943;52.270;20.978;2022-12-29T11:16:38;8.40;98.30
23532;DHT22;11943;52.270;20.978;2022-12-29T11:19:04;8.30;98.10
23532;DHT22;11943;52.270;20.978;2022-12-29T11:23:59;8.40;97.90
23532;DHT22;11943;52.270;20.978;2022-12-29T11:26:26;8.50;97.60
23532;DHT22;11943;52.270;20.978;2022-12-29T11:31:40;8.50;97.80
23532;DHT22;11943;52.270;20.978;2022-12-29T11:34:06;8.60;96.60
23532;DHT22;11943;52.270;20.978;2022-12-29T11:36:33;8.60;96.90
23532;DHT22;11943;52.270;20.978;2022-12-29T11:38:59;8.70;97.30
23532;DHT22;11943;52.270;20.978;2022-12-29T11:41:26;8.60;97.60
23532;DHT22;11943;52.270;20.978;2022-12-29T11:43:52;8.70;98.00
23532;DHT22;11943;52.270;20.978;2022-12-29T11:46:20;8.60;97.50
23532;DHT22;11943;52.270;20.978;2022-12-29T11:48:47;8.60;97.60
23532;DHT22;11943;52.270;20.978;2022-12-29T11:51:20;8.60;97.10
23532;DHT22;11943;52.270;20.978;2022-12-29T11:53:46;8.60;97.60
23532;DHT22;11943;52.270;20.978;2022-12-29T11:56:17;8.70;98.50
23532;DHT22;11943;52.270;20.978;2022-12-29T11:58:43;8.70;98.30
23532;DHT22;11943;52.270;20.978;2022-12-29T12:04:06;8.80;97.60
23532;DHT22;11943;52.270;20.978;2022-12-29T12:06:29;8.70;97.40
23532;DHT22;11943;52.270;20.978;2022-12-29T12:08:58;8.80;97.90
23532;DHT22;11943;52.270;20.978;2022-12-29T12:11:28;8.80;97.50
23532;DHT22;11943;52.270;20.978;2022-12-29T12:19:01;8.90;97.30
23532;DHT22;11943;52.270;20.978;2022-12-29T12:21:34;8.90;97.50
23532;DHT22;11943;52.270;20.978;2022-12-29T12:29:24;8.90;97.60
23532;DHT22;11943;52.270;20.978;2022-12-29T12:34:24;9.00;97.40
23532;DHT22;11943;52.270;20.978;2022-12-29T13:18:16;9.40;96.10
23532;DHT22;11943;52.270;20.978;2022-12-29T13:20:54;9.40;96.00
23532;DHT22;11943;52.270;20.978;2022-12-29T13:23:32;9.40;95.90
23532;DHT22;11943;52.270;20.978;2022-12-29T13:31:33;9.40;96.30
23532;DHT22;11943;52.270;20.978;2022-12-29T13:34:15;8.80;96.30
23532;DHT22;11943;52.270;20.978;2022-12-29T13:36:51;9.30;96.80
23532;DHT22;11943;52.270;20.978;2022-12-29T13:39:34;9.40;97.10
23532;DHT22;11943;52.270;20.978;2022-12-29T13:42:00;9.30;97.20
23532;DHT22;11943;52.270;20.978;2022-12-29T13:44:41;9.40;96.80
23532;DHT22;11943;52.270;20.978;2022-12-29T13:49:50;9.30;97.50
23532;DHT22;11943;52.270;20.978;2022-12-29T13:52:18;9.30;97.50
23532;DHT22;11943;52.270;20.978;2022-12-29T14:00:26;9.30;98.00
23532;DHT22;11943;52.270;20.978;2022-12-29T14:07:48;9.40;97.50
23532;DHT22;11943;52.270;20.978;2022-12-29T14:15:30;9.40;96.90
23532;DHT22;11943;52.270;20.978;2022-12-29T14:18:10;9.50;96.80
23532;DHT22;11943;52.270;20.978;2022-12-29T14:20:37;9.40;96.90
23532;DHT22;11943;52.270;20.978;2022-12-29T14:28:25;9.40;97.50
23532;DHT22;11943;52.270;20.978;2022-12-29T14:30:53;9.40;97.10
23532;DHT22;11943;52.270;20.978;2022-12-29T14:33:19;9.40;96.80
23532;DHT22;11943;52.270;20.978;2022-12-29T14:35:46;9.40;96.70
23532;DHT22;11943;52.270;20.978;2022-12-29T14:38:36;9.40;96.70
23532;DHT22;11943;52.270;20.978;2022-12-29T14:43:57;9.40;96.70
23532;DHT22;11943;52.270;20.978;2022-12-29T14:46:23;9.40;96.70
23532;DHT22;11943;52.270;20.978;2022-12-29T14:48:52;9.40;96.70
23532;DHT22;11943;52.270;20.978;2022-12-29T14:51:24;9.40;96.80
23532;DHT22;11943;52.270;20.978;2022-12-29T14:53:52;9.40;96.60
23532;DHT22;11943;52.270;20.978;2022-12-29T14:56:24;9.40;97.00
23532;DHT22;11943;52.270;20.978;2022-12-29T14:58:51;9.40;96.60
23532;DHT22;11943;52.270;20.978;2022-12-29T15:01:19;9.40;96.90
23532;DHT22;11943;52.270;20.978;2022-12-29T15:03:46;9.40;97.30
23532;DHT22;11943;52.270;20.978;2022-12-29T15:06:13;9.40;97.30
23532;DHT22;11943;52.270;20.978;2022-12-29T15:11:20;9.30;97.50
23532;DHT22;11943;52.270;20.978;2022-12-29T15:13:46;9.20;97.70
23532;DHT22;11943;52.270;20.978;2022-12-29T15:18:47;9.20;97.90
23532;DHT22;11943;52.270;20.978;2022-12-29T15:21:12;9.20;97.90
23532;DHT22;11943;52.270;20.978;2022-12-29T15:23:39;9.20;98.30
23532;DHT22;11943;52.270;20.978;2022-12-29T15:26:07;9.20;98.30
23532;DHT22;11943;52.270;20.978;2022-12-29T15:28:43;9.20;98.60
23532;DHT22;11943;52.270;20.978;2022-12-29T15:31:20;9.20;98.60
23532;DHT22;11943;52.270;20.978;2022-12-29T15:33:47;9.20;98.30
23532;DHT22;11943;52.270;20.978;2022-12-29T15:36:14;9.20;98.60
23532;DHT22;11943;52.270;20.978;2022-12-29T15:38:40;9.10;98.80
23532;DHT22;11943;52.270;20.978;2022-12-29T15:41:06;9.10;98.80
23532;DHT22;11943;52.270;20.978;2022-12-29T15:46:13;9.00;99.70
23532;DHT22;11943;52.270;20.978;2022-12-29T15:48:39;9.00;99.70
23532;DHT22;11943;52.270;20.978;2022-12-29T15:51:47;8.90;99.90
23532;DHT22;11943;52.270;20.978;2022-12-29T15:53:53;8.90;99.90
23532;DHT22;11943;52.270;20.978;2022-12-29T15:56:19;8.90;99.90
23532;DHT22;11943;52.270;20.978;2022-12-29T15:58:48;8.90;99.90
23532;DHT22;11943;52.270;20.978;2022-12-29T16:01:19;8.80;99.90
23532;DHT22;11943;52.270;20.978;2022-12-29T16:03:49;8.80;99.90
23532;DHT22;11943;52.270;20.978;2022-12-29T16:06:33;8.70;99.90
23532;DHT22;11943;52.270;20.978;2022-12-29T16:09:15;8.70;99.90
23532;DHT22;11943;52.270;20.978;2022-12-29T16:11:43;8.60;99.90
23532;DHT22;11943;52.270;20.978;2022-12-29T16:14:10;8.70;99.90
23532;DHT22;11943;52.270;20.978;2022-12-29T16:16:39;8.70;99.90
23532;DHT22;11943;52.270;20.978;2022-12-29T16:19:19;8.70;99.90
23532;DHT22;11943;52.270;20.978;2022-12-29T16:21:46;8.70;99.90
23532;DHT22;11943;52.270;20.978;2022-12-29T16:24:13;8.70;99.90
23532;DHT22;11943;52.270;20.978;2022-12-29T16:26:45;8.70;99.90
23532;DHT22;11943;52.270;20.978;2022-12-29T16:29:11;8.80;99.90
23532;DHT22;11943;52.270;20.978;2022-12-29T16:34:25;8.80;99.90
23532;DHT22;11943;52.270;20.978;2022-12-29T16:39:32;8.70;99.90
23532;DHT22;11943;52.270;20.978;2022-12-29T16:41:58;8.60;99.90
23532;DHT22;11943;52.270;20.978;2022-12-29T16:44:25;8.60;99.90
23532;DHT22;11943;52.270;20.978;2022-12-29T16:47:02;8.60;99.90
23532;DHT22;11943;52.270;20.978;2022-12-29T16:49:30;8.60;99.90
23532;DHT22;11943;52.270;20.978;2022-12-29T16:51:56;8.70;99.90
23532;DHT22;11943;52.270;20.978;2022-12-29T16:54:29;8.70;99.90
23532;DHT22;11943;52.270;20.978;2022-12-29T16:56:55;8.70;99.90
23532;DHT22;11943;52.270;20.978;2022-12-29T17:01:46;8.80;99.90
23532;DHT22;11943;52.270;20.978;2022-12-29T17:04:12;8.90;99.90
23532;DHT22;11943;52.270;20.978;2022-12-29T17:06:39;8.90;99.90
23532;DHT22;11943;52.270;20.978;2022-12-29T17:09:24;9.00;99.90
23532;DHT22;11943;52.270;20.978;2022-12-29T17:11:54;9.10;99.90
23532;DHT22;11943;52.270;20.978;2022-12-29T17:14:26;9.10;99.90
23532;DHT22;11943;52.270;20.978;2022-12-29T17:16:54;9.10;99.90
23532;DHT22;11943;52.270;20.978;2022-12-29T17:19:29;9.20;99.90
23532;DHT22;11943;52.270;20.978;2022-12-29T17:21:55;9.20;99.90
23532;DHT22;11943;52.270;20.978;2022-12-29T17:24:21;9.20;99.90
23532;DHT22;11943;52.270;20.978;2022-12-29T17:26:50;9.20;99.90
23532;DHT22;11943;52.270;20.978;2022-12-29T17:29:29;9.30;99.90
23532;DHT22;11943;52.270;20.978;2022-12-29T17:31:55;9.20;99.90
23532;DHT22;11943;52.270;20.978;2022-12-29T17:34:21;9.30;99.90
23532;DHT22;11943;52.270;20.978;2022-12-29T17:36:47;9.30;99.90
23532;DHT22;11943;52.270;20.978;2022-12-29T17:39:12;9.20;99.90
23532;DHT22;11943;52.270;20.978;2022-12-29T17:41:38;9.20;99.90
23532;DHT22;11943;52.270;20.978;2022-12-29T17:44:04;9.20;99.90
23532;DHT22;11943;52.270;20.978;2022-12-29T17:46:30;9.10;99.90
23532;DHT22;11943;52.270;20.978;2022-12-29T17:48:56;9.20;99.90
23532;DHT22;11943;52.270;20.978;2022-12-29T17:51:21;9.20;99.90
23532;DHT22;11943;52.270;20.978;2022-12-29T17:53:47;9.10;99.90
23532;DHT22;11943;52.270;20.978;2022-12-29T17:56:14;9.10;99.90
23532;DHT22;11943;52.270;20.978;2022-12-29T17:58:40;9.10;99.90
23532;DHT22;11943;52.270;20.978;2022-12-29T18:01:05;9.00;99.90
23532;DHT22;11943;52.270;20.978;2022-12-29T18:03:32;9.00;99.90
23532;DHT22;11943;52.270;20.978;2022-12-29T18:05:58;9.00;99.90
23532;DHT22;11943;52.270;20.978;2022-12-29T18:08:23;8.90;99.90
23532;DHT22;11943;52.270;20.978;2022-12-29T18:10:49;8.90;99.90
23532;DHT22;11943;52.270;20.978;2022-12-29T18:13:28;8.90;99.90
23532;DHT22;11943;52.270;20.978;2022-12-29T18:15:54;8.90;99.90
23532;DHT22;11943;52.270;20.978;2022-12-29T18:18:24;8.80;99.90
23532;DHT22;11943;52.270;20.978;2022-12-29T18:20:51;8.90;99.90
23532;DHT22;11943;52.270;20.978;2022-12-29T18:23:27;8.90;99.90
23532;DHT22;11943;52.270;20.978;2022-12-29T18:25:54;8.80;99.90
23532;DHT22;11943;52.270;20.978;2022-12-29T18:28:21;8.80;99.90